createdAt,value
2018-04-20T00:00:06.141Z,101968.28
2018-04-20T00:02:31.944Z,101966.96
2018-04-20T00:04:57.717Z,101963.09
2018-04-20T00:07:23.500Z,101958.70
2018-04-20T00:09:49.304Z,101954.40
2018-04-20T00:12:15.086Z,101954.27
2018-04-20T00:14:40.882Z,101951.59
2018-04-20T00:17:06.660Z,101952.93
2018-04-20T00:19:32.457Z,101950.82
2018-04-20T00:21:58.277Z,101943.70
2018-04-20T00:24:24.077Z,101945.84
2018-04-20T00:26:49.869Z,101941.64
2018-04-20T00:29:15.744Z,101937.70
2018-04-20T00:31:41.485Z,101934.14
2018-04-20T00:34:07.272Z,101928.20
2018-04-20T00:36:33.237Z,101928.36
2018-04-20T00:38:59.021Z,101933.03
2018-04-20T00:41:24.809Z,101924.03
2018-04-20T00:43:50.604Z,101919.13
2018-04-20T00:46:16.388Z,101926.50
2018-04-20T00:48:42.185Z,101923.62
2018-04-20T00:51:08.146Z,101924.00
2018-04-20T00:53:46.479Z,101914.47
2018-04-20T00:56:12.263Z,101913.91
2018-04-20T00:58:38.049Z,101918.55
2018-04-20T01:01:03.893Z,101908.70
2018-04-20T01:03:29.664Z,101905.04
2018-04-20T01:05:55.447Z,101906.80
2018-04-20T01:08:21.244Z,101898.58
2018-04-20T01:10:47.017Z,101901.69
2018-04-20T01:13:12.808Z,101892.96
2018-04-20T01:15:38.592Z,101892.20
2018-04-20T01:18:04.369Z,101897.05
2018-04-20T01:20:30.153Z,101888.00
2018-04-20T01:22:55.929Z,101894.00
2018-04-20T01:25:21.709Z,101895.05
2018-04-20T01:27:47.513Z,101891.02
2018-04-20T01:30:13.277Z,101896.56
2018-04-20T01:32:39.052Z,101889.63
2018-04-20T01:35:04.872Z,101890.77
2018-04-20T01:37:30.659Z,101887.95
2018-04-20T01:39:56.453Z,101888.38
2018-04-20T01:42:22.265Z,101887.95
2018-04-20T01:44:48.039Z,101885.73
2018-04-20T01:47:13.828Z,101886.08
2018-04-20T01:49:39.645Z,101878.62
2018-04-20T01:52:05.424Z,101878.51
2018-04-20T01:54:31.325Z,101884.31
2018-04-20T01:56:57.105Z,101880.94
2018-04-20T01:59:22.919Z,101879.50
2018-04-20T02:01:48.716Z,101875.12
2018-04-20T02:04:14.491Z,101866.94
2018-04-20T02:06:40.286Z,101873.73
2018-04-20T02:09:06.068Z,101869.27
2018-04-20T02:11:31.877Z,101855.81
2018-04-20T02:13:57.654Z,101860.53
2018-04-20T02:16:23.444Z,101859.42
2018-04-20T02:18:49.569Z,101844.98
2018-04-20T02:21:15.335Z,101844.31
2018-04-20T02:23:41.142Z,101837.12
2018-04-20T02:26:06.945Z,101833.78
2018-04-20T02:28:32.718Z,101839.32
2018-04-20T02:30:58.541Z,101830.86
2018-04-20T02:33:24.337Z,101826.77
2018-04-20T02:35:50.110Z,101826.53
2018-04-20T02:38:15.895Z,101822.55
2018-04-20T02:40:41.702Z,101825.23
2018-04-20T02:43:07.837Z,101820.05
2018-04-20T02:45:33.617Z,101821.33
2018-04-20T02:47:59.403Z,101820.41
2018-04-20T02:50:25.217Z,101819.84
2018-04-20T02:52:51.020Z,101812.50
2018-04-20T02:55:16.825Z,101807.70
2018-04-20T02:57:42.852Z,101806.70
2018-04-20T03:00:08.628Z,101805.05
2018-04-20T03:02:34.410Z,101802.33
2018-04-20T03:05:00.206Z,101791.19
2018-04-20T03:07:26.016Z,101792.31
2018-04-20T03:09:51.791Z,101794.88
2018-04-20T03:12:17.588Z,101788.15
2018-04-20T03:14:43.393Z,101788.41
2018-04-20T03:17:09.170Z,101783.45
2018-04-20T03:19:34.957Z,101779.97
2018-04-20T03:22:00.765Z,101772.02
2018-04-20T03:24:26.545Z,101769.66
2018-04-20T03:26:52.355Z,101767.64
2018-04-20T03:29:18.149Z,101771.94
2018-04-20T03:31:43.916Z,101769.23
2018-04-20T03:34:09.690Z,101753.02
2018-04-20T03:36:35.501Z,101763.55
2018-04-20T03:39:01.282Z,101757.50
2018-04-20T03:41:27.064Z,101753.09
2018-04-20T03:43:52.843Z,101753.09
2018-04-20T03:46:18.648Z,101750.71
2018-04-20T03:48:44.443Z,101747.88
2018-04-20T03:51:10.225Z,101747.34
2018-04-20T03:53:36.020Z,101738.13
2018-04-20T03:56:01.797Z,101740.47
2018-04-20T03:58:27.585Z,101739.34
2018-04-20T04:00:53.410Z,101745.19
2018-04-20T04:03:19.198Z,101738.87
2018-04-20T04:05:44.964Z,101747.20
2018-04-20T04:08:10.790Z,101741.51
2018-04-20T04:10:36.590Z,101731.64
2018-04-20T04:13:02.386Z,101732.22
2018-04-20T04:15:28.161Z,101736.94
2018-04-20T04:18:06.445Z,101733.14
2018-04-20T04:20:36.045Z,101728.92
2018-04-20T04:23:14.233Z,101731.58
2018-04-20T04:25:52.474Z,101727.98
2018-04-20T04:28:21.649Z,101726.93
2018-04-20T04:30:47.465Z,101732.23
2018-04-20T04:33:13.232Z,101728.41
2018-04-20T04:35:39.041Z,101723.39
2018-04-20T04:38:04.838Z,101716.27
2018-04-20T04:40:30.638Z,101722.53
2018-04-20T04:42:56.434Z,101720.95
2018-04-20T04:45:22.217Z,101717.91
2018-04-20T04:47:48.010Z,101723.27
2018-04-20T04:50:14.020Z,101721.70
2018-04-20T04:52:39.801Z,101713.14
2018-04-20T04:55:05.608Z,101712.48
2018-04-20T04:57:31.404Z,101704.96
2018-04-20T04:59:57.189Z,101704.45
2018-04-20T05:02:22.973Z,101701.32
2018-04-20T05:04:48.785Z,101703.14
2018-04-20T05:07:14.553Z,101698.55
2018-04-20T05:09:40.341Z,101700.34
2018-04-20T05:12:06.149Z,101695.71
2018-04-20T05:14:31.930Z,101699.17
2018-04-20T05:16:57.732Z,101693.12
2018-04-20T05:19:23.562Z,101692.27
2018-04-20T05:21:49.357Z,101687.09
2018-04-20T05:24:15.138Z,101689.53
2018-04-20T05:26:40.939Z,101688.93
2018-04-20T05:29:06.727Z,101687.18
2018-04-20T05:31:32.504Z,101684.91
2018-04-20T05:33:58.301Z,101684.55
2018-04-20T05:36:24.076Z,101676.25
2018-04-20T05:38:49.861Z,101679.57
2018-04-20T05:41:15.665Z,101678.70
2018-04-20T05:43:41.470Z,101678.53
2018-04-20T05:46:07.267Z,101672.93
2018-04-20T05:48:33.081Z,101674.77
2018-04-20T05:50:58.879Z,101671.22
2018-04-20T05:53:24.677Z,101672.12
2018-04-20T05:55:50.709Z,101666.11
2018-04-20T05:58:16.526Z,101671.86
2018-04-20T06:00:42.309Z,101667.58
2018-04-20T06:03:08.117Z,101665.53
2018-04-20T06:05:33.942Z,101662.41
2018-04-20T06:07:59.758Z,101660.02
2018-04-20T06:10:25.554Z,101660.41
2018-04-20T06:12:51.388Z,101657.64
2018-04-20T06:15:17.213Z,101661.00
2018-04-20T06:17:43.066Z,101660.34
2018-04-20T06:20:08.840Z,101657.17
2018-04-20T06:22:34.676Z,101657.73
2018-04-20T06:25:00.518Z,101651.63
2018-04-20T06:27:26.321Z,101659.61
2018-04-20T06:29:52.097Z,101650.59
2018-04-20T06:32:17.924Z,101651.47
2018-04-20T06:34:43.712Z,101653.50
2018-04-20T06:37:09.500Z,101647.76
2018-04-20T06:39:35.293Z,101645.56
2018-04-20T06:42:01.080Z,101646.11
2018-04-20T06:44:26.890Z,101645.38
2018-04-20T06:46:52.669Z,101644.81
2018-04-20T06:49:18.450Z,101639.50
2018-04-20T06:51:44.299Z,101640.98
2018-04-20T06:54:10.063Z,101633.81
2018-04-20T06:56:35.873Z,101641.95
2018-04-20T06:59:01.678Z,101637.19
2018-04-20T07:01:27.460Z,101634.33
2018-04-20T07:03:53.269Z,101631.33
2018-04-20T07:06:19.104Z,101636.14
2018-04-20T07:08:44.885Z,101631.83
2018-04-20T07:11:10.697Z,101630.06
2018-04-20T07:13:36.477Z,101626.74
2018-04-20T07:16:02.273Z,101624.20
2018-04-20T07:18:28.062Z,101625.63
2018-04-20T07:20:53.869Z,101628.47
2018-04-20T07:23:19.762Z,101619.84
2018-04-20T07:25:45.533Z,101620.60
2018-04-20T07:28:11.343Z,101612.27
2018-04-20T07:30:37.162Z,101610.56
2018-04-20T07:33:02.952Z,101614.10
2018-04-20T07:35:28.773Z,101590.63
2018-04-20T07:37:54.549Z,101608.73
2018-04-20T07:40:20.720Z,101601.32
2018-04-20T07:42:46.542Z,101599.69
2018-04-20T07:45:12.323Z,101596.69
2018-04-20T07:47:38.444Z,101600.66
2018-04-20T07:50:04.327Z,101587.89
2018-04-20T07:52:30.136Z,101599.05
2018-04-20T07:54:55.974Z,101600.11
2018-04-20T07:57:21.815Z,101594.59
2018-04-20T07:59:47.619Z,101599.80
2018-04-20T08:02:13.431Z,101593.90
2018-04-20T08:04:39.249Z,101594.00
2018-04-20T08:07:05.680Z,101598.35
2018-04-20T08:09:31.757Z,101593.89
2018-04-20T08:11:57.654Z,101595.93
2018-04-20T08:14:23.633Z,101593.28
2018-04-20T08:16:49.454Z,101594.11
2018-04-20T08:19:15.278Z,101593.69
2018-04-20T08:21:41.234Z,101585.42
2018-04-20T08:24:07.023Z,101579.27
2018-04-20T08:26:32.869Z,101583.26
2018-04-20T08:28:58.670Z,101577.16
2018-04-20T08:31:25.234Z,101580.76
2018-04-20T08:33:51.050Z,101584.22
2018-04-20T08:36:16.843Z,101588.89
2018-04-20T08:38:42.669Z,101593.50
2018-04-20T08:41:08.795Z,101587.91
2018-04-20T08:43:34.645Z,101584.55
2018-04-20T08:46:01.301Z,101586.39
2018-04-20T08:48:27.142Z,101588.92
2018-04-20T08:50:52.931Z,101587.05
2018-04-20T08:53:18.723Z,101572.66
2018-04-20T08:55:45.841Z,101582.80
2018-04-20T08:58:11.661Z,101581.02
2018-04-20T09:00:37.455Z,101572.86
2018-04-20T09:03:03.268Z,101572.03
2018-04-20T09:05:29.881Z,101567.54
2018-04-20T09:07:55.709Z,101573.11
2018-04-20T09:10:21.517Z,101568.00
2018-04-20T09:12:47.322Z,101563.64
2018-04-20T09:15:13.101Z,101563.69
2018-04-20T09:17:39.264Z,101560.93
2018-04-20T09:20:05.064Z,101563.57
2018-04-20T09:22:30.861Z,101560.23
2018-04-20T09:24:57.127Z,101562.53
2018-04-20T09:27:22.916Z,101561.91
2018-04-20T09:29:48.714Z,101558.06
2018-04-20T09:32:14.527Z,101558.72
2018-04-20T09:34:40.901Z,101550.59
2018-04-20T09:37:06.700Z,101551.47
2018-04-20T09:39:33.310Z,101543.12
2018-04-20T09:41:59.143Z,101542.77
2018-04-20T09:44:24.946Z,101537.06
2018-04-20T09:46:50.749Z,101542.09
2018-04-20T09:49:16.593Z,101538.77
2018-04-20T09:51:43.241Z,101533.15
2018-04-20T09:54:09.054Z,101537.38
2018-04-20T09:56:34.882Z,101523.28
2018-04-20T09:59:00.682Z,101524.37
2018-04-20T10:01:26.765Z,101522.95
2018-04-20T10:03:56.425Z,101520.80
2018-04-20T10:06:22.914Z,101515.97
2018-04-20T10:08:48.885Z,101513.92
2018-04-20T10:11:14.679Z,101511.87
2018-04-20T10:13:40.473Z,101512.05
2018-04-20T10:16:07.864Z,101519.44
2018-04-20T10:18:33.657Z,101505.40
2018-04-20T10:20:59.483Z,101513.67
2018-04-20T10:23:25.241Z,101507.29
2018-04-20T10:25:51.342Z,101498.94
2018-04-20T10:28:17.159Z,101504.37
2018-04-20T10:30:42.965Z,101502.19
2018-04-20T10:33:08.784Z,101498.37
2018-04-20T10:35:34.599Z,101489.67
2018-04-20T10:38:00.394Z,101491.59
2018-04-20T10:40:26.182Z,101484.44
2018-04-20T10:42:52.831Z,101486.62
2018-04-20T10:45:18.628Z,101487.26
2018-04-20T10:47:44.460Z,101483.83
2018-04-20T10:50:10.358Z,101484.69
2018-04-20T10:52:36.923Z,101480.61
2018-04-20T10:55:02.737Z,101474.97
2018-04-20T10:57:29.542Z,101480.37
2018-04-20T10:59:55.342Z,101477.34
2018-04-20T11:02:21.139Z,101487.42
2018-04-20T11:04:46.954Z,101486.62
2018-04-20T11:07:12.750Z,101476.20
2018-04-20T11:09:38.557Z,101474.28
2018-04-20T11:12:04.402Z,101475.14
2018-04-20T11:14:30.207Z,101475.31
2018-04-20T11:16:56.020Z,101466.91
2018-04-20T11:19:21.918Z,101465.42
2018-04-20T11:21:48.290Z,101463.90
2018-04-20T11:24:14.094Z,101464.03
2018-04-20T11:26:40.828Z,101460.14
2018-04-20T11:29:06.629Z,101459.20
2018-04-20T11:31:32.418Z,101456.25
2018-04-20T11:33:58.233Z,101463.81
2018-04-20T11:36:24.039Z,101458.11
2018-04-20T11:38:49.863Z,101448.77
2018-04-20T11:41:15.678Z,101455.89
2018-04-20T11:43:42.136Z,101449.24
2018-04-20T11:46:07.965Z,101449.38
2018-04-20T11:48:34.921Z,101448.47
2018-04-20T11:51:00.717Z,101451.95
2018-04-20T11:53:26.519Z,101447.18
2018-04-20T11:55:52.318Z,101449.35
2018-04-20T11:58:18.122Z,101445.20
2018-04-20T12:00:43.968Z,101446.52
2018-04-20T12:03:09.749Z,101441.70
2018-04-20T12:05:35.542Z,101444.46
2018-04-20T12:08:01.365Z,101448.41
2018-04-20T12:10:27.189Z,101448.84
2018-04-20T12:12:53.038Z,101442.80
2018-04-20T12:15:18.847Z,101446.34
2018-04-20T12:17:44.629Z,101440.33
2018-04-20T12:20:10.422Z,101448.52
2018-04-20T12:22:36.213Z,101441.62
2018-04-20T12:25:02.011Z,101449.44
2018-04-20T12:27:27.831Z,101447.42
2018-04-20T12:29:53.606Z,101442.73
2018-04-20T12:32:19.399Z,101438.45
2018-04-20T12:34:45.217Z,101443.65
2018-04-20T12:37:11.030Z,101435.05
2018-04-20T12:39:36.809Z,101436.73
2018-04-20T12:42:02.635Z,101434.19
2018-04-20T12:44:35.564Z,101441.89
2018-04-20T12:47:01.390Z,101436.34
2018-04-20T12:49:27.167Z,101435.47
2018-04-20T12:51:52.986Z,101423.84
2018-04-20T12:54:18.790Z,101433.31
2018-04-20T12:56:44.594Z,101425.53
2018-04-20T12:59:10.406Z,101427.70
2018-04-20T13:01:37.077Z,101411.81
2018-04-20T13:04:02.915Z,101422.52
2018-04-20T13:06:28.719Z,101413.11
2018-04-20T13:08:54.506Z,101422.12
2018-04-20T13:11:20.362Z,101405.78
2018-04-20T13:13:46.129Z,101416.93
2018-04-20T13:16:11.965Z,101397.52
2018-04-20T13:18:37.770Z,101399.69
2018-04-20T13:21:03.573Z,101391.97
2018-04-20T13:23:29.358Z,101406.20
2018-04-20T13:25:55.214Z,101396.30
2018-04-20T13:28:21.038Z,101406.63
2018-04-20T13:30:46.822Z,101402.32
2018-04-20T13:33:12.627Z,101396.67
2018-04-20T13:35:38.431Z,101390.23
2018-04-20T13:38:04.226Z,101402.77
2018-04-20T13:40:30.026Z,101397.17
2018-04-20T13:42:55.830Z,101389.81
2018-04-20T13:45:21.632Z,101392.77
2018-04-20T13:47:47.410Z,101388.95
2018-04-20T13:50:13.350Z,101388.95
2018-04-20T13:52:39.145Z,101373.38
2018-04-20T13:55:04.945Z,101387.21
2018-04-20T13:57:30.994Z,101373.86
2018-04-20T13:59:56.785Z,101375.99
2018-04-20T14:02:22.570Z,101381.61
2018-04-20T14:04:48.457Z,101377.75
2018-04-20T14:07:14.229Z,101380.38
2018-04-20T14:09:40.025Z,101378.64
2018-04-20T14:12:05.911Z,101373.93
2018-04-20T14:14:31.688Z,101373.08
2018-04-20T14:16:57.495Z,101369.63
2018-04-20T14:19:23.278Z,101374.75
2018-04-20T14:21:49.049Z,101373.05
2018-04-20T14:24:14.878Z,101367.02
2018-04-20T14:26:40.658Z,101368.75
2018-04-20T14:29:06.465Z,101360.58
2018-04-20T14:31:32.254Z,101386.38
2018-04-20T14:33:58.229Z,101378.61
2018-04-20T14:36:24.026Z,101373.45
2018-04-20T14:38:49.810Z,101376.49
2018-04-20T14:41:15.589Z,101378.19
2018-04-20T14:43:41.455Z,101375.13
2018-04-20T14:46:07.336Z,101386.37
2018-04-20T14:48:33.158Z,101382.45
2018-04-20T14:50:59.048Z,101374.21
2018-04-20T14:53:24.785Z,101378.06
2018-04-20T14:55:50.581Z,101383.58
2018-04-20T14:58:16.380Z,101373.70
2018-04-20T15:00:42.196Z,101374.13
2018-04-20T15:03:08.146Z,101365.56
2018-04-20T15:05:33.939Z,101366.82
2018-04-20T15:07:59.736Z,101363.29
2018-04-20T15:10:25.536Z,101378.19
2018-04-20T15:12:51.318Z,101362.34
2018-04-20T15:15:17.101Z,101363.05
2018-04-20T15:17:42.895Z,101372.52
2018-04-20T15:20:08.688Z,101371.23
2018-04-20T15:22:34.474Z,101369.56
2018-04-20T15:25:00.278Z,101359.74
2018-04-20T15:27:26.065Z,101358.80
2018-04-20T15:29:51.904Z,101357.86
2018-04-20T15:32:17.673Z,101355.19
2018-04-20T15:34:43.489Z,101348.75
2018-04-20T15:37:09.320Z,101354.75
2018-04-20T15:39:35.107Z,101355.11
2018-04-20T15:42:00.890Z,101350.49
2018-04-20T15:44:27.009Z,101346.45
2018-04-20T15:46:52.847Z,101347.48
2018-04-20T15:49:18.586Z,101352.30
2018-04-20T15:51:44.421Z,101342.33
2018-04-20T15:54:10.209Z,101341.05
2018-04-20T15:56:35.989Z,101333.70
2018-04-20T15:59:01.825Z,101341.31
2018-04-20T16:01:27.627Z,101346.16
2018-04-20T16:03:53.409Z,101338.44
2018-04-20T16:06:19.189Z,101345.77
2018-04-20T16:08:44.969Z,101340.86
2018-04-20T16:11:10.780Z,101341.91
2018-04-20T16:13:36.572Z,101339.50
2018-04-20T16:16:02.352Z,101333.50
2018-04-20T16:18:28.158Z,101339.05
2018-04-20T16:20:53.942Z,101341.89
2018-04-20T16:23:19.781Z,101343.17
2018-04-20T16:25:45.629Z,101341.03
2018-04-20T16:28:11.420Z,101343.49
2018-04-20T16:30:37.215Z,101341.63
2018-04-20T16:33:03.034Z,101349.34
2018-04-20T16:35:28.825Z,101345.67
2018-04-20T16:37:54.628Z,101349.04
2018-04-20T16:40:20.727Z,101348.36
2018-04-20T16:42:46.525Z,101352.06
2018-04-20T16:45:12.326Z,101342.78
2018-04-20T16:47:38.388Z,101344.44
2018-04-20T16:50:04.197Z,101341.72
2018-04-20T16:52:29.987Z,101338.78
2018-04-20T16:54:55.874Z,101345.72
2018-04-20T16:57:21.666Z,101340.03
2018-04-20T16:59:47.441Z,101336.88
2018-04-20T17:02:13.338Z,101335.16
2018-04-20T17:04:39.128Z,101329.77
2018-04-20T17:07:04.899Z,101331.50
2018-04-20T17:09:30.917Z,101333.77
2018-04-20T17:11:56.714Z,101331.69
2018-04-20T17:14:22.517Z,101326.56
2018-04-20T17:16:48.323Z,101321.98
2018-04-20T17:19:14.132Z,101323.70
2018-04-20T17:21:39.929Z,101320.22
2018-04-20T17:24:05.837Z,101317.55
2018-04-20T17:26:31.629Z,101318.09
2018-04-20T17:28:57.409Z,101319.98
2018-04-20T17:31:23.200Z,101322.72
2018-04-20T17:33:48.977Z,101323.16
2018-04-20T17:36:14.777Z,101329.11
2018-04-20T17:38:40.565Z,101326.77
2018-04-20T17:41:06.348Z,101321.58
2018-04-20T17:43:32.165Z,101325.13
2018-04-20T17:45:57.951Z,101320.34
2018-04-20T17:48:23.735Z,101313.84
2018-04-20T17:50:49.551Z,101324.24
2018-04-20T17:53:15.342Z,101323.41
2018-04-20T17:55:41.118Z,101318.61
2018-04-20T17:58:06.905Z,101317.59
2018-04-20T18:00:32.688Z,101316.48
2018-04-20T18:03:05.369Z,101316.80
2018-04-20T18:05:31.177Z,101313.68
2018-04-20T18:07:56.960Z,101315.46
2018-04-20T18:10:22.770Z,101324.72
2018-04-20T18:12:48.545Z,101317.45
2018-04-20T18:15:14.338Z,101316.73
2018-04-20T18:17:40.416Z,101317.77
2018-04-20T18:20:06.209Z,101316.33
2018-04-20T18:22:31.996Z,101319.42
2018-04-20T18:24:58.082Z,101327.19
2018-04-20T18:27:23.870Z,101317.82
2018-04-20T18:29:49.683Z,101321.85
2018-04-20T18:32:15.505Z,101324.61
2018-04-20T18:34:41.305Z,101327.70
2018-04-20T18:37:07.181Z,101328.14
2018-04-20T18:39:32.972Z,101330.71
2018-04-20T18:41:58.768Z,101334.38
2018-04-20T18:44:24.565Z,101340.08
2018-04-20T18:46:50.368Z,101342.63
2018-04-20T18:49:16.154Z,101342.59
2018-04-20T18:51:41.949Z,101334.61
2018-04-20T18:54:08.058Z,101344.58
2018-04-20T18:56:33.841Z,101338.37
2018-04-20T18:58:59.657Z,101350.77
2018-04-20T19:01:25.455Z,101353.56
2018-04-20T19:03:51.236Z,101350.14
2018-04-20T19:06:17.041Z,101359.11
2018-04-20T19:08:42.841Z,101355.91
2018-04-20T19:11:08.642Z,101359.80
2018-04-20T19:13:34.434Z,101358.58
2018-04-20T19:16:00.236Z,101365.55
2018-04-20T19:18:26.039Z,101359.27
2018-04-20T19:20:51.833Z,101366.08
2018-04-20T19:23:17.621Z,101362.01
2018-04-20T19:25:43.401Z,101360.86
2018-04-20T19:28:09.553Z,101360.48
2018-04-20T19:30:35.349Z,101357.58
2018-04-20T19:33:01.143Z,101361.30
2018-04-20T19:35:26.951Z,101360.81
2018-04-20T19:37:52.725Z,101363.56
2018-04-20T19:40:18.519Z,101362.63
2018-04-20T19:42:44.423Z,101357.19
2018-04-20T19:45:10.253Z,101354.48
2018-04-20T19:47:36.053Z,101360.56
2018-04-20T19:50:01.870Z,101357.46
2018-04-20T19:52:27.658Z,101365.35
2018-04-20T19:54:53.466Z,101366.36
2018-04-20T19:57:19.273Z,101367.28
2018-04-20T19:59:45.067Z,101368.75
2018-04-20T20:02:10.858Z,101365.91
2018-04-20T20:04:36.667Z,101365.87
2018-04-20T20:07:02.485Z,101364.52
2018-04-20T20:09:28.258Z,101355.13
2018-04-20T20:11:54.059Z,101357.95
2018-04-20T20:14:19.869Z,101357.72
2018-04-20T20:16:45.645Z,101368.18
2018-04-20T20:19:11.441Z,101368.00
2018-04-20T20:21:37.246Z,101365.21
2018-04-20T20:24:03.041Z,101366.36
2018-04-20T20:26:28.831Z,101364.85
2018-04-20T20:28:54.645Z,101363.09
2018-04-20T20:31:20.421Z,101361.06
2018-04-20T20:33:46.208Z,101361.78
2018-04-20T20:36:12.009Z,101359.50
2018-04-20T20:38:37.791Z,101365.24
2018-04-20T20:41:03.588Z,101364.25
2018-04-20T20:43:29.625Z,101356.59
2018-04-20T20:45:55.423Z,101359.56
2018-04-20T20:48:21.210Z,101359.62
2018-04-20T20:50:47.030Z,101357.67
2018-04-20T20:53:12.805Z,101362.94
2018-04-20T20:55:38.589Z,101359.68
2018-04-20T20:58:04.391Z,101359.25
2018-04-20T21:00:30.178Z,101358.78
2018-04-20T21:02:56.013Z,101357.50
2018-04-20T21:05:21.814Z,101354.98
2018-04-20T21:07:47.618Z,101356.86
2018-04-20T21:10:13.423Z,101350.67
2018-04-20T21:12:39.222Z,101358.14
2018-04-20T21:15:05.014Z,101360.38
2018-04-20T21:17:30.823Z,101362.70
2018-04-20T21:19:56.627Z,101356.21
2018-04-20T21:22:22.563Z,101357.30
2018-04-20T21:24:48.365Z,101360.03
2018-04-20T21:27:14.181Z,101355.45
2018-04-20T21:29:39.969Z,101349.83
2018-04-20T21:32:05.745Z,101347.53
2018-04-20T21:34:31.546Z,101352.36
2018-04-20T21:36:57.338Z,101361.09
2018-04-20T21:39:23.129Z,101355.25
2018-04-20T21:41:48.938Z,101362.61
2018-04-20T21:44:14.714Z,101359.72
2018-04-20T21:46:40.529Z,101359.77
2018-04-20T21:49:06.322Z,101352.31
2018-04-20T21:51:32.114Z,101357.95
2018-04-20T21:53:57.919Z,101352.78
2018-04-20T21:56:23.721Z,101350.59
2018-04-20T21:58:49.514Z,101347.17
2018-04-20T22:01:15.332Z,101346.20
2018-04-20T22:03:41.130Z,101344.86
2018-04-20T22:06:06.938Z,101346.78
2018-04-20T22:08:32.748Z,101354.13
2018-04-20T22:10:58.558Z,101339.45
2018-04-20T22:13:24.359Z,101341.25
2018-04-20T22:15:50.164Z,101346.83
2018-04-20T22:18:15.949Z,101342.72
2018-04-20T22:20:41.728Z,101342.42
2018-04-20T22:23:07.546Z,101346.95
2018-04-20T22:25:33.342Z,101346.95
2018-04-20T22:27:59.147Z,101343.22
2018-04-20T22:30:24.958Z,101345.20
2018-04-20T22:32:50.996Z,101344.80
2018-04-20T22:35:16.782Z,101346.05
2018-04-20T22:37:42.581Z,101346.50
2018-04-20T22:40:08.381Z,101350.45
2018-04-20T22:42:34.170Z,101349.02
2018-04-20T22:44:59.963Z,101351.70
2018-04-20T22:47:25.737Z,101347.28
2018-04-20T22:49:51.540Z,101353.45
2018-04-20T22:52:17.326Z,101355.11
2018-04-20T22:54:43.122Z,101356.44
2018-04-20T22:57:08.935Z,101354.52
2018-04-20T22:59:34.949Z,101360.33
2018-04-20T23:02:00.803Z,101364.11
2018-04-20T23:04:26.608Z,101359.58
2018-04-20T23:06:52.394Z,101349.58
2018-04-20T23:09:18.202Z,101360.44
2018-04-20T23:11:43.975Z,101351.08
2018-04-20T23:14:09.755Z,101347.64
2018-04-20T23:16:35.556Z,101351.14
2018-04-20T23:19:01.334Z,101352.02
2018-04-20T23:21:27.125Z,101352.88
2018-04-20T23:23:53.162Z,101352.77
2018-04-20T23:26:18.959Z,101346.03
2018-04-20T23:28:44.746Z,101353.30
2018-04-20T23:31:10.541Z,101352.77
2018-04-20T23:33:36.321Z,101357.08
2018-04-20T23:36:02.153Z,101351.76
2018-04-20T23:38:27.932Z,101347.25
2018-04-20T23:40:53.725Z,101350.23
2018-04-20T23:43:19.669Z,101347.03
2018-04-20T23:45:45.462Z,101348.96
2018-04-20T23:48:11.251Z,101344.72
2018-04-20T23:50:37.158Z,101346.58
2018-04-20T23:53:02.954Z,101341.75
2018-04-20T23:55:28.740Z,101344.64
2018-04-20T23:57:54.547Z,101341.31
